Time;durP1;ratioP1;P1;durP2;ratioP2;P2;SDS_P1;SDS_P2;PMS_P1;PMS_P2;Temp;Humidity;BMP_temperature;BMP_pressure;BME280_temperature;BME280_humidity;BME280_pressure;Samples;Min_cycle;Max_cycle;Signal;HPM_P1;HPM_P2
2022/08/23 00:02:25;;;;;;;2.75;2.55;;;21.80;41.30;;;;;;20706;6736;276286;-86
2022/08/23 00:05:00;;;;;;;2.70;2.50;;;22.00;41.60;;;;;;20878;6754;117056;-87
2022/08/23 00:07:36;;;;;;;2.50;2.40;;;21.80;41.50;;;;;;20637;6764;117518;-87
2022/08/23 00:10:11;;;;;;;2.30;2.20;;;21.50;41.80;;;;;;20799;6754;117431;-87
2022/08/23 00:12:46;;;;;;;2.70;2.40;;;21.30;42.30;;;;;;20866;6740;116999;-87
2022/08/23 00:15:22;;;;;;;3.17;2.60;;;21.10;42.30;;;;;;20657;6755;306342;-87
2022/08/23 00:17:59;;;;;;;3.05;2.83;;;21.40;42.10;;;;;;20614;6769;307959;-87
2022/08/23 00:20:33;;;;;;;4.23;2.90;;;21.80;41.40;;;;;;20835;6769;120183;-87
2022/08/23 00:23:10;;;;;;;3.07;2.40;;;21.70;41.40;;;;;;20842;6764;118357;-87
2022/08/23 00:25:45;;;;;;;8.23;2.77;;;21.40;41.70;;;;;;20798;6769;117106;-87
2022/08/23 00:28:22;;;;;;;3.17;2.80;;;21.20;42.00;;;;;;20853;6759;117108;-87
2022/08/23 00:30:57;;;;;;;3.23;2.40;;;21.00;42.30;;;;;;20871;6759;117107;-87
2022/08/23 00:33:34;;;;;;;2.73;2.53;;;20.90;42.60;;;;;;20837;6812;117345;-86
2022/08/23 00:36:11;;;;;;;4.10;2.40;;;20.70;42.90;;;;;;20574;6759;340221;-87
2022/08/23 00:38:44;;;;;;;3.00;2.40;;;21.10;42.80;;;;;;20829;6750;119085;-87
2022/08/23 00:41:20;;;;;;;2.60;2.40;;;21.10;42.50;;;;;;20887;6751;116586;-87
2022/08/23 00:49:41;;;;;;;4.50;2.63;;;21.60;42.40;;;;;;19896;6820;277481;-87
2022/08/23 00:52:28;;;;;;;2.40;2.30;;;22.00;41.70;;;;;;20659;6749;306909;-87
2022/08/23 00:55:02;;;;;;;2.60;2.50;;;22.00;41.60;;;;;;20842;6764;121224;-87
2022/08/23 00:57:39;;;;;;;2.80;2.60;;;21.70;41.80;;;;;;20477;6760;303319;-89
2022/08/23 01:00:15;;;;;;;2.50;2.30;;;21.70;42.10;;;;;;20871;6749;122632;-87
2022/08/23 01:02:50;;;;;;;2.50;2.30;;;21.40;42.20;;;;;;20816;6775;122229;-87
2022/08/23 01:05:28;;;;;;;3.10;2.30;;;21.10;42.70;;;;;;20871;6756;117033;-87
2022/08/23 01:08:04;;;;;;;3.45;2.87;;;20.80;43.20;;;;;;20641;6753;336539;-87
2022/08/23 01:10:42;;;;;;;2.37;2.27;;;21.00;43.40;;;;;;20838;6760;117149;-87
2022/08/23 01:13:41;;;;;;;2.90;2.70;;;20.90;43.20;;;;;;20610;6775;309815;-87
2022/08/23 01:16:27;;;;;;;2.73;2.53;;;21.10;43.20;;;;;;20701;6771;118577;-87
2022/08/23 01:19:02;;;;;;;2.93;2.50;;;21.00;43.20;;;;;;20900;6746;118112;-87
2022/08/23 01:21:38;;;;;;;4.10;2.80;;;20.60;43.50;;;;;;20898;6746;117036;-87
2022/08/23 01:24:13;;;;;;;2.90;2.70;;;20.40;44.60;;;;;;20677;6742;279201;-87
2022/08/23 01:26:49;;;;;;;2.70;2.60;;;20.60;44.10;;;;;;20595;6746;337358;-87
2022/08/23 01:29:25;;;;;;;3.10;2.90;;;21.30;44.40;;;;;;20707;6746;277594;-87
2022/08/23 01:32:01;;;;;;;2.73;2.50;;;21.30;43.80;;;;;;20900;6746;127226;-88
2022/08/23 01:34:37;;;;;;;3.00;2.80;;;21.10;43.70;;;;;;20925;6746;117301;-87
2022/08/23 01:37:12;;;;;;;3.08;2.87;;;20.70;44.10;;;;;;20555;6746;297597;-87
2022/08/23 01:39:51;;;;;;;3.30;2.70;;;20.90;44.30;;;;;;20864;6764;117621;-87
2022/08/23 01:42:27;;;;;;;2.90;2.70;;;20.90;44.80;;;;;;20627;6764;306727;-88
2022/08/23 01:45:02;;;;;;;3.73;2.97;;;20.80;44.10;;;;;;20862;6764;118949;-87
2022/08/23 01:47:38;;;;;;;3.40;3.10;;;20.40;44.30;;;;;;20722;6764;120275;-87
2022/08/23 01:50:14;;;;;;;3.13;2.80;;;20.40;44.30;;;;;;20889;6749;117232;-87
2022/08/23 01:52:49;;;;;;;2.97;2.70;;;20.20;45.00;;;;;;20904;6749;119328;-87
2022/08/23 01:55:25;;;;;;;3.00;2.80;;;20.00;45.00;;;;;;20874;6749;117358;-87
2022/08/23 01:58:01;;;;;;;2.40;2.30;;;19.70;45.40;;;;;;20870;6749;122894;-87
2022/08/23 02:00:37;;;;;;;2.97;2.77;;;19.70;45.40;;;;;;20693;6749;278727;-87
2022/08/23 02:03:12;;;;;;;4.07;3.13;;;20.00;45.40;;;;;;20904;6749;117142;-87
2022/08/23 02:05:48;;;;;;;3.60;2.90;;;20.10;45.30;;;;;;20852;6749;117030;-87
2022/08/23 02:11:20;;;;;;;3.53;3.17;;;19.70;45.70;;;;;;20905;6749;120282;-87
2022/08/23 02:13:54;;;;;;;5.13;3.47;;;19.60;46.00;;;;;;20687;6749;306815;-87
2022/08/23 02:16:30;;;;;;;3.37;3.10;;;19.90;45.90;;;;;;20538;6758;309754;-87
2022/08/23 02:19:06;;;;;;;3.00;2.90;;;20.30;45.30;;;;;;20690;6746;308086;-87
2022/08/23 02:21:41;;;;;;;3.58;3.28;;;20.60;44.90;;;;;;20676;6761;306238;-87
2022/08/23 02:24:17;;;;;;;3.37;3.07;;;20.80;44.40;;;;;;20671;6742;305896;-87
2022/08/23 02:26:52;;;;;;;3.12;2.92;;;20.90;44.30;;;;;;20556;6739;338573;-88
2022/08/23 02:29:31;;;;;;;3.07;2.97;;;20.90;44.40;;;;;;20638;6763;279974;-87
2022/08/23 02:32:07;;;;;;;3.70;3.40;;;21.10;44.30;;;;;;20624;6761;307696;-87
2022/08/23 02:34:43;;;;;;;3.47;3.17;;;21.20;44.00;;;;;;20682;6749;279551;-87
2022/08/23 02:37:19;;;;;;;3.33;3.12;;;21.10;43.80;;;;;;20471;6764;310001;-87
2022/08/23 02:39:54;;;;;;;3.10;2.90;;;21.10;43.80;;;;;;20871;6750;120497;-87
2022/08/23 02:42:30;;;;;;;3.10;2.90;;;20.80;44.20;;;;;;20861;6754;117240;-87
2022/08/23 02:45:07;;;;;;;3.17;2.97;;;20.30;44.80;;;;;;20895;6750;117281;-86
2022/08/23 02:47:41;;;;;;;3.10;2.90;;;19.90;45.40;;;;;;20738;6810;117388;-87
2022/08/23 02:50:18;;;;;;;3.30;3.10;;;19.70;45.90;;;;;;20849;6765;117643;-87
2022/08/23 02:52:54;;;;;;;3.47;3.20;;;19.50;46.30;;;;;;20614;6787;306395;-87
2022/08/23 02:55:29;;;;;;;4.43;3.40;;;19.80;46.50;;;;;;20590;6769;278778;-87
2022/08/23 02:58:05;;;;;;;3.60;3.30;;;20.10;45.90;;;;;;20881;6769;117313;-87
2022/08/23 03:00:40;;;;;;;3.60;3.30;;;20.00;45.80;;;;;;20712;6751;277853;-86
2022/08/23 03:03:22;;;;;;;3.10;2.90;;;20.10;45.70;;;;;;20854;6759;117686;-87
2022/08/23 03:05:53;;;;;;;3.80;3.07;;;20.00;45.70;;;;;;20819;6789;117788;-87
2022/08/23 03:08:29;;;;;;;3.37;3.17;;;19.70;46.10;;;;;;20692;6743;306110;-87
2022/08/23 03:11:04;;;;;;;3.63;3.30;;;19.90;46.00;;;;;;20887;6773;118138;-87
2022/08/23 03:13:40;;;;;;;3.60;3.40;;;19.80;45.90;;;;;;20656;6756;306905;-86
2022/08/23 03:16:15;;;;;;;3.47;3.17;;;20.00;45.80;;;;;;20686;6773;120650;-86
2022/08/23 03:18:51;;;;;;;3.40;3.20;;;19.90;45.90;;;;;;20632;6762;279341;-86
2022/08/23 03:21:26;;;;;;;3.40;3.10;;;20.10;45.80;;;;;;20571;6777;307546;-86
2022/08/23 03:24:02;;;;;;;3.50;3.30;;;20.40;45.50;;;;;;20857;6759;119385;-87
2022/08/23 03:26:42;;;;;;;4.57;3.10;;;20.30;45.70;;;;;;20791;6741;122672;-87
2022/08/23 03:29:18;;;;;;;4.13;3.83;;;19.70;46.40;;;;;;20844;6756;117052;-88
2022/08/23 03:31:57;;;;;;;4.07;3.77;;;19.70;46.40;;;;;;20798;6777;117240;-89
2022/08/23 03:34:30;;;;;;;5.63;3.87;;;19.60;46.60;;;;;;20811;6770;119331;-88
2022/08/23 03:37:05;;;;;;;4.23;3.83;;;19.40;46.70;;;;;;20680;6785;120974;-87
2022/08/23 03:39:41;;;;;;;3.97;3.77;;;19.10;46.90;;;;;;20789;6784;119170;-86
2022/08/23 03:42:17;;;;;;;4.20;3.80;;;19.10;46.90;;;;;;20679;6814;117855;-88
2022/08/23 03:44:53;;;;;;;3.90;3.60;;;19.00;47.10;;;;;;20717;6807;117398;-86
2022/08/23 03:47:28;;;;;;;3.97;3.67;;;18.90;47.30;;;;;;20701;6778;117170;-87
2022/08/23 03:50:04;;;;;;;3.93;3.63;;;18.90;47.60;;;;;;20859;6763;117671;-86
2022/08/23 03:52:39;;;;;;;3.93;3.63;;;18.80;47.80;;;;;;20864;6763;117690;-87
2022/08/23 03:55:15;;;;;;;4.07;3.80;;;18.70;47.90;;;;;;20611;6779;307711;-86
2022/08/23 03:57:50;;;;;;;4.17;3.83;;;19.00;48.20;;;;;;20863;6763;117111;-87
2022/08/23 04:00:27;;;;;;;4.13;3.93;;;19.10;47.80;;;;;;20892;6739;122551;-86
2022/08/23 04:03:02;;;;;;;5.00;3.97;;;18.80;48.00;;;;;;20843;6778;117159;-86
2022/08/23 04:05:38;;;;;;;4.23;3.93;;;18.80;48.10;;;;;;20588;6769;279104;-86
2022/08/23 04:08:14;;;;;;;4.30;4.00;;;19.10;48.50;;;;;;20807;6764;119102;-87
2022/08/23 04:10:49;;;;;;;4.30;4.00;;;19.20;48.10;;;;;;20692;6739;277189;-86
2022/08/23 04:13:27;;;;;;;4.47;3.50;;;19.40;47.70;;;;;;20836;6754;117221;-86
2022/08/23 04:16:02;;;;;;;3.47;3.27;;;19.10;47.90;;;;;;20791;6753;117469;-87
2022/08/23 04:18:37;;;;;;;4.20;3.90;;;19.10;47.80;;;;;;20918;6742;117194;-86
2022/08/23 04:21:12;;;;;;;3.77;3.47;;;18.90;48.20;;;;;;20915;6742;117345;-87
2022/08/23 04:23:48;;;;;;;4.10;3.90;;;18.80;48.30;;;;;;20698;6742;305879;-87
2022/08/23 04:26:23;;;;;;;4.67;4.20;;;19.10;48.60;;;;;;20791;6742;121375;-86
2022/08/23 04:28:59;;;;;;;4.13;3.83;;;19.10;47.70;;;;;;20836;6766;117255;-87
2022/08/23 04:31:34;;;;;;;4.13;3.93;;;19.00;48.00;;;;;;20832;6762;117230;-86
2022/08/23 04:34:10;;;;;;;4.30;4.00;;;18.80;48.20;;;;;;20650;6751;309329;-86
2022/08/23 04:36:46;;;;;;;4.10;3.90;;;19.10;48.70;;;;;;20527;6769;341610;-87
2022/08/23 04:39:22;;;;;;;4.00;3.70;;;19.90;47.80;;;;;;20598;6769;308142;-86
2022/08/23 04:42:17;;;;;;;3.95;3.67;;;19.80;47.70;;;;;;20623;6766;323154;-87
2022/08/23 04:44:53;;;;;;;3.90;3.60;;;20.10;47.30;;;;;;20621;6764;316884;-87
2022/08/23 04:47:28;;;;;;;3.37;3.07;;;20.30;47.00;;;;;;20664;6764;117763;-87
2022/08/23 04:50:04;;;;;;;4.50;4.10;;;20.00;47.80;;;;;;20825;6769;117310;-87
2022/08/23 04:52:40;;;;;;;5.07;4.78;;;19.60;49.10;;;;;;20612;6781;306613;-87
2022/08/23 04:55:17;;;;;;;4.97;4.68;;;19.60;48.40;;;;;;20641;6766;307554;-87
2022/08/23 04:57:53;;;;;;;5.40;5.00;;;20.10;47.90;;;;;;20720;6736;307022;-87
2022/08/23 05:00:29;;;;;;;4.97;4.67;;;20.10;47.90;;;;;;20889;6739;117969;-87
2022/08/23 05:03:05;;;;;;;4.57;4.27;;;19.90;48.10;;;;;;20781;6782;118158;-89
2022/08/23 05:05:41;;;;;;;4.83;4.50;;;19.50;48.40;;;;;;20896;6658;117525;-87
2022/08/23 05:21:59;;;;;;;4.40;4.20;;;18.80;49.70;;;;;;21018;6545;90173;-87
2022/08/23 05:24:28;;;;;;;5.00;4.50;;;18.80;50.00;;;;;;20851;6821;117260;-86
2022/08/23 05:26:55;;;;;;;5.67;4.20;;;18.80;50.10;;;;;;20694;6833;117541;-86
2022/08/23 05:29:21;;;;;;;4.53;4.03;;;18.80;50.20;;;;;;20565;6919;117507;-87
2022/08/23 05:31:47;;;;;;;4.75;4.45;;;18.80;50.30;;;;;;20615;6903;117282;-86
2022/08/23 05:34:16;;;;;;;4.50;4.23;;;18.70;50.10;;;;;;20580;6903;117663;-87
2022/08/23 05:36:43;;;;;;;4.43;4.03;;;18.70;50.20;;;;;;20599;6900;117849;-88
2022/08/23 05:39:09;;;;;;;4.30;4.10;;;18.70;50.20;;;;;;20428;6888;282211;-87
2022/08/23 05:41:34;;;;;;;4.72;4.43;;;19.00;50.20;;;;;;20454;6874;342659;-88
2022/08/23 05:44:00;;;;;;;4.20;3.90;;;19.50;49.70;;;;;;20627;6874;118070;-87
2022/08/23 05:46:28;;;;;;;4.18;3.97;;;19.50;49.30;;;;;;20425;6889;282405;-88
2022/08/23 05:48:52;;;;;;;4.07;3.63;;;19.70;48.90;;;;;;20630;6889;117614;-87
2022/08/23 05:51:18;;;;;;;4.05;3.80;;;19.60;48.80;;;;;;20423;6889;313287;-87
2022/08/23 05:53:43;;;;;;;4.03;3.77;;;19.80;48.60;;;;;;20573;6904;118558;-87
2022/08/23 05:56:09;;;;;;;4.57;4.28;;;19.70;48.60;;;;;;20679;6870;116967;-87
2022/08/23 05:58:55;;;;;;;4.70;4.40;;;19.50;49.00;;;;;;21216;6656;67174;-92
2022/08/23 06:15:18;;;;;;;5.00;4.53;;;18.70;50.50;;;;;;21336;6502;90570;-85
2022/08/23 06:17:45;;;;;;;5.20;4.90;;;18.70;50.80;;;;;;20591;6832;307646;-86
2022/08/23 06:20:14;;;;;;;5.53;5.03;;;19.60;50.20;;;;;;20580;6822;309798;-85
2022/08/23 06:22:37;;;;;;;5.53;5.13;;;19.60;50.20;;;;;;20591;6830;309681;-85
2022/08/23 06:25:03;;;;;;;5.10;4.60;;;20.00;49.20;;;;;;20822;6828;119951;-85
2022/08/23 06:27:29;;;;;;;5.63;4.63;;;20.00;49.20;;;;;;20814;6828;119104;-86
2022/08/23 06:29:54;;;;;;;5.37;4.85;;;19.90;49.60;;;;;;20816;6828;117371;-86
2022/08/23 06:32:20;;;;;;;5.47;4.70;;;19.80;49.90;;;;;;20584;6828;308288;-86
2022/08/23 06:34:45;;;;;;;4.90;4.55;;;20.00;49.80;;;;;;20880;6828;117139;-86
2022/08/23 06:37:11;;;;;;;5.67;5.27;;;20.20;49.90;;;;;;20658;6828;280359;-87
2022/08/23 06:39:36;;;;;;;5.97;5.10;;;20.60;49.60;;;;;;20818;6828;117090;-86
2022/08/23 06:42:02;;;;;;;6.20;5.70;;;20.70;49.10;;;;;;20803;6826;117748;-86
2022/08/23 06:44:29;;;;;;;5.40;5.10;;;20.70;49.40;;;;;;20606;6825;277430;-87
2022/08/23 06:46:55;;;;;;;5.50;5.00;;;21.00;48.60;;;;;;20820;6825;117123;-88
2022/08/23 06:49:20;;;;;;;5.87;5.37;;;21.10;48.60;;;;;;20643;6825;334490;-86
2022/08/23 06:51:45;;;;;;;5.60;5.10;;;21.40;48.50;;;;;;20580;6834;306604;-86
2022/08/23 06:54:12;;;;;;;5.47;5.07;;;21.90;47.60;;;;;;20744;6837;117570;-87
2022/08/23 06:56:37;;;;;;;4.80;4.40;;;21.90;47.60;;;;;;20482;6855;310829;-86
2022/08/23 06:59:05;;;;;;;4.97;4.57;;;22.20;47.00;;;;;;20507;6858;309512;-87
2022/08/23 07:01:42;;;;;;;5.07;4.67;;;22.60;46.20;;;;;;20727;6854;117939;-86
2022/08/23 07:04:08;;;;;;;5.00;4.60;;;22.80;46.30;;;;;;20486;6858;308034;-87
2022/08/23 07:06:34;;;;;;;4.60;4.30;;;23.20;46.20;;;;;;20730;6854;118002;-87
2022/08/23 07:08:59;;;;;;;4.65;4.45;;;23.10;45.60;;;;;;20491;6858;309196;-87
2022/08/23 07:11:25;;;;;;;4.70;4.37;;;23.40;45.20;;;;;;20478;6872;292143;-87
2022/08/23 07:13:52;;;;;;;4.53;4.23;;;23.90;44.60;;;;;;20715;6860;118017;-87
2022/08/23 07:16:18;;;;;;;4.80;4.50;;;23.90;44.60;;;;;;20666;6872;117839;-86
2022/08/23 07:18:45;;;;;;;4.47;4.10;;;23.80;45.10;;;;;;20711;6864;117836;-87
2022/08/23 07:21:13;;;;;;;5.05;4.62;;;24.10;44.10;;;;;;20539;6851;279109;-87
2022/08/23 07:23:39;;;;;;;5.50;5.00;;;24.10;44.10;;;;;;20528;6851;310406;-87
2022/08/23 07:26:05;;;;;;;4.27;4.00;;;24.70;43.50;;;;;;20728;6849;117855;-87
2022/08/23 07:28:31;;;;;;;4.90;4.60;;;24.70;43.50;;;;;;20522;6851;308004;-87
2022/08/23 07:31:16;;;;;;;4.80;4.40;;;25.00;43.20;;;;;;20538;6851;279373;-87
2022/08/23 07:33:42;;;;;;;4.60;4.10;;;25.40;41.60;;;;;;20754;6851;118005;-87
2022/08/23 07:36:07;;;;;;;4.45;4.05;;;25.40;41.90;;;;;;20666;6866;119230;-87
2022/08/23 07:38:34;;;;;;;4.57;4.27;;;25.30;42.30;;;;;;20549;6848;308668;-87
2022/08/23 07:40:58;;;;;;;4.07;3.87;;;25.60;41.30;;;;;;20538;6848;307597;-87
2022/08/23 07:43:24;;;;;;;4.40;4.10;;;26.00;40.50;;;;;;20544;6848;339391;-87
2022/08/23 07:45:49;;;;;;;3.80;3.53;;;26.40;39.00;;;;;;20741;6848;117776;-87
2022/08/23 07:48:15;;;;;;;4.55;4.10;;;26.40;39.60;;;;;;20525;6848;307133;-87
2022/08/23 07:50:41;;;;;;;4.10;3.90;;;26.60;39.50;;;;;;20758;6848;117743;-87
2022/08/23 07:53:06;;;;;;;3.90;3.60;;;26.60;40.10;;;;;;20547;6848;278390;-87
2022/08/23 07:55:33;;;;;;;3.90;3.60;;;26.80;39.40;;;;;;20753;6848;117353;-87
2022/08/23 07:58:01;;;;;;;3.60;3.40;;;26.80;39.30;;;;;;20754;6847;119585;-87
2022/08/23 08:00:26;;;;;;;3.93;3.63;;;26.80;39.60;;;;;;20755;6847;120626;-87
2022/08/23 08:02:53;;;;;;;4.32;3.40;;;26.70;39.80;;;;;;20756;6847;117228;-87
2022/08/23 08:05:20;;;;;;;3.60;3.30;;;26.70;39.90;;;;;;20763;6840;117621;-87
2022/08/23 08:07:45;;;;;;;3.83;3.40;;;26.80;39.80;;;;;;20785;6840;117315;-87
2022/08/23 08:10:11;;;;;;;3.42;3.15;;;26.90;39.70;;;;;;20769;6840;117475;-87
2022/08/23 08:12:37;;;;;;;3.87;3.53;;;26.90;39.30;;;;;;20565;6840;277620;-87
2022/08/23 08:15:04;;;;;;;3.60;3.40;;;27.40;36.70;;;;;;20777;6840;117729;-87
2022/08/23 08:17:30;;;;;;;3.50;3.20;;;27.50;37.10;;;;;;20773;6840;118137;-87
2022/08/23 08:19:55;;;;;;;3.35;3.15;;;27.50;37.10;;;;;;20511;6859;314523;-87
2022/08/23 08:22:22;;;;;;;4.57;3.20;;;27.90;36.40;;;;;;20697;6857;117348;-87
2022/08/23 08:24:48;;;;;;;3.33;3.13;;;28.00;36.00;;;;;;20527;6855;283599;-87
2022/08/23 08:27:14;;;;;;;3.35;3.10;;;28.60;34.20;;;;;;20530;6855;278557;-89
2022/08/23 08:29:42;;;;;;;3.20;3.00;;;28.60;34.20;;;;;;20744;6855;117686;-87
2022/08/23 08:32:07;;;;;;;3.97;2.83;;;28.70;34.80;;;;;;20682;6862;117535;-87
2022/08/23 08:34:32;;;;;;;3.37;3.07;;;28.60;35.10;;;;;;20510;6858;281170;-87
2022/08/23 08:36:57;;;;;;;3.20;2.83;;;28.90;34.20;;;;;;20493;6856;308394;-87
2022/08/23 08:39:23;;;;;;;3.97;3.00;;;29.30;33.90;;;;;;20556;6843;307855;-87
2022/08/23 08:42:08;;;;;;;3.10;2.80;;;29.60;32.90;;;;;;20758;6843;116305;-87
2022/08/23 08:44:40;;;;;;;3.00;2.80;;;29.70;33.30;;;;;;19745;6843;307093;-87
2022/08/23 08:47:07;;;;;;;3.80;2.87;;;29.90;32.80;;;;;;20761;6844;117766;-91
2022/08/23 08:49:32;;;;;;;3.00;2.77;;;29.80;32.70;;;;;;20747;6844;117349;-88
2022/08/23 08:52:04;;;;;;;2.70;2.50;;;29.70;33.00;;;;;;20737;6844;117246;-87
2022/08/23 08:54:29;;;;;;;2.50;2.40;;;29.70;33.10;;;;;;20762;6844;117753;-87
2022/08/23 08:56:55;;;;;;;2.93;2.67;;;29.60;33.20;;;;;;20557;6844;337144;-88
2022/08/23 08:59:20;;;;;;;3.00;2.80;;;29.90;32.10;;;;;;20556;6844;285948;-88
2022/08/23 09:01:47;;;;;;;2.97;2.60;;;30.50;32.20;;;;;;20756;6844;117397;-88
2022/08/23 09:04:14;;;;;;;3.07;2.03;;;30.50;32.20;;;;;;20747;6844;117335;-89
2022/08/23 09:07:00;;;;;;;2.97;2.77;;;30.30;32.00;;;;;;20771;6844;116925;-93
2022/08/23 09:09:45;;;;;;;2.87;2.50;;;30.30;32.00;;;;;;20769;6844;117177;-93
2022/08/23 09:12:31;;;;;;;3.27;2.53;;;30.30;32.20;;;;;;20759;6844;117368;-89
2022/08/23 09:15:36;;;;;;;2.90;2.30;;;30.20;32.10;;;;;;20513;6844;309502;-91
2022/08/23 09:18:02;;;;;;;5.17;2.47;;;30.50;30.80;;;;;;20762;6844;120226;-89
2022/08/23 09:20:30;;;;;;;5.00;2.40;;;30.70;30.70;;;;;;20528;6844;308454;-88
2022/08/23 09:23:19;;;;;;;2.53;2.33;;;31.00;29.90;;;;;;20781;6844;117384;-88
2022/08/23 09:25:54;;;;;;;2.40;2.20;;;31.10;30.30;;;;;;20771;6837;117249;-87
2022/08/23 09:28:19;;;;;;;2.50;2.40;;;31.10;31.00;;;;;;20772;6837;117507;-88
2022/08/23 09:30:55;;;;;;;3.50;2.30;;;31.00;30.80;;;;;;20801;6837;120288;-87
2022/08/23 09:33:20;;;;;;;3.97;2.17;;;31.00;30.50;;;;;;20855;6837;66792;-87
2022/08/23 09:36:22;;;;;;;6.07;2.60;;;31.00;30.40;;;;;;21107;6638;66266;-87
2022/08/23 10:03:24;;;;;;;1.80;1.70;;;30.90;31.20;;;;;;21228;6532;88146;-86
2022/08/23 10:05:50;;;;;;;2.17;1.97;;;31.00;29.90;;;;;;20796;6827;117011;-86
2022/08/23 10:08:21;;;;;;;1.80;1.70;;;31.10;28.50;;;;;;20696;6874;118793;-87
2022/08/23 10:10:47;;;;;;;2.57;1.67;;;31.20;27.90;;;;;;20664;6891;117848;-90
2022/08/23 10:13:14;;;;;;;4.20;1.92;;;31.30;27.30;;;;;;20387;6891;311523;-87
2022/08/23 10:15:50;;;;;;;4.10;2.07;;;31.50;25.50;;;;;;20593;6901;117395;-87
2022/08/23 10:18:24;;;;;;;3.03;1.83;;;31.70;26.50;;;;;;20558;6886;120763;-88
2022/08/23 10:21:00;;;;;;;2.13;1.77;;;31.70;26.50;;;;;;20601;6899;118665;-87
2022/08/23 10:23:52;;;;;;;2.30;2.10;;;31.70;26.30;;;;;;20425;6884;311755;-87
2022/08/23 10:26:21;;;;;;;2.27;2.03;;;32.00;25.40;;;;;;20413;6890;285050;-88
2022/08/23 10:32:11;;;;;;;2.57;1.87;;;32.70;26.00;;;;;;20444;6884;308742;-87
2022/08/23 10:34:57;;;;;;;2.17;1.97;;;33.10;25.60;;;;;;20397;6890;278863;-88
2022/08/23 10:37:46;;;;;;;2.63;2.00;;;33.40;24.40;;;;;;20423;6884;307209;-88
2022/08/23 10:40:16;;;;;;;2.20;2.10;;;33.40;24.40;;;;;;20567;6899;117861;-88
2022/08/23 10:42:52;;;;;;;2.23;1.80;;;33.10;24.60;;;;;;20625;6875;118181;-88
2022/08/23 10:45:21;;;;;;;2.00;1.90;;;33.00;24.00;;;;;;20452;6875;311156;-88
2022/08/23 10:47:57;;;;;;;2.37;2.17;;;33.00;24.00;;;;;;20434;6875;307858;-88
2022/08/23 10:50:21;;;;;;;1.95;1.77;;;33.10;23.80;;;;;;20430;6875;309696;-88
2022/08/23 10:52:55;;;;;;;1.90;1.80;;;33.30;24.50;;;;;;20702;6875;116365;-88
2022/08/23 10:55:34;;;;;;;3.73;2.20;;;33.20;24.30;;;;;;20693;6875;116404;-88
2022/08/23 10:57:49;;;;;;;2.33;1.80;;;32.90;25.00;;;;;;20428;6875;279145;-88
2022/08/23 11:00:19;;;;;;;2.30;2.10;;;32.90;22.80;;;;;;20440;6875;278566;-88
2022/08/23 11:02:51;;;;;;;3.73;1.87;;;32.90;24.20;;;;;;20659;6875;117775;-88
2022/08/23 11:05:25;;;;;;;2.67;1.87;;;32.90;23.50;;;;;;20448;6875;309357;-88
2022/08/23 11:08:09;;;;;;;4.53;1.80;;;32.90;23.50;;;;;;20678;6872;117959;-88
2022/08/23 11:10:39;;;;;;;3.60;1.80;;;32.90;24.20;;;;;;20680;6872;118608;-89
2022/08/23 11:13:11;;;;;;;2.20;1.83;;;32.70;24.40;;;;;;20480;6870;279056;-88
2022/08/23 11:15:42;;;;;;;1.80;1.70;;;32.70;24.80;;;;;;20668;6871;117982;-88
2022/08/23 11:18:06;;;;;;;2.10;1.90;;;32.70;25.00;;;;;;20657;6871;143532;-88
2022/08/23 11:20:48;;;;;;;1.92;1.83;;;32.50;25.00;;;;;;20459;6871;310074;-88
2022/08/23 11:23:30;;;;;;;2.00;1.90;;;32.50;24.60;;;;;;20471;6871;337699;-88
2022/08/23 11:25:55;;;;;;;2.00;1.90;;;32.80;24.50;;;;;;20673;6871;117806;-88
2022/08/23 11:28:24;;;;;;;2.28;2.08;;;32.70;25.10;;;;;;20507;6871;305851;-87
2022/08/23 11:30:51;;;;;;;2.03;1.70;;;32.70;24.40;;;;;;20687;6871;117352;-89
2022/08/23 11:33:33;;;;;;;2.13;1.83;;;32.60;24.60;;;;;;20318;6871;117808;-88
2022/08/23 11:36:08;;;;;;;2.87;1.87;;;32.40;25.10;;;;;;20079;6878;308243;-87
2022/08/23 11:38:47;;;;;;;2.73;2.00;;;32.60;24.80;;;;;;20402;6893;313243;-88
2022/08/23 11:41:13;;;;;;;2.00;1.90;;;32.80;24.70;;;;;;20664;6878;117251;-88
2022/08/23 11:43:39;;;;;;;2.07;1.93;;;32.80;24.70;;;;;;20580;6906;118252;-89
2022/08/23 11:46:21;;;;;;;2.27;2.07;;;32.60;24.60;;;;;;20390;6878;284828;-88
2022/08/23 11:49:27;;;;;;;2.30;2.00;;;32.60;24.60;;;;;;20382;6903;302019;-88
2022/08/23 11:52:29;;;;;;;2.07;1.97;;;32.80;23.70;;;;;;20631;6888;117574;-88
2022/08/23 11:55:15;;;;;;;2.70;1.90;;;32.60;24.20;;;;;;20641;6886;117091;-87
2022/08/23 11:58:03;;;;;;;2.33;1.87;;;32.30;24.60;;;;;;20209;6886;312418;-88
2022/08/23 12:00:49;;;;;;;2.00;1.90;;;32.40;24.10;;;;;;20606;6888;118492;-87
2022/08/23 12:03:20;;;;;;;3.25;1.98;;;32.30;23.80;;;;;;20419;6888;310928;-88
2022/08/23 12:05:50;;;;;;;2.70;1.93;;;32.30;24.30;;;;;;19975;6893;119734;-88
2022/08/23 12:08:25;;;;;;;2.30;1.90;;;32.30;24.30;;;;;;20403;6888;308762;-88
2022/08/23 12:10:51;;;;;;;2.40;2.20;;;32.30;24.70;;;;;;20628;6886;117889;-88
2022/08/23 12:13:20;;;;;;;1.98;1.83;;;32.20;24.60;;;;;;20426;6886;337941;-88
2022/08/23 12:16:05;;;;;;;2.10;2.00;;;32.30;24.70;;;;;;20614;6886;117500;-88
2022/08/23 12:18:32;;;;;;;2.10;2.00;;;32.40;24.40;;;;;;20219;6886;315588;-90
2022/08/23 12:20:57;;;;;;;2.50;1.83;;;32.40;24.40;;;;;;20631;6886;118442;-90
2022/08/23 12:23:24;;;;;;;1.70;1.65;;;32.30;24.40;;;;;;20634;6886;117944;-88
2022/08/23 12:26:06;;;;;;;2.20;2.00;;;32.10;24.70;;;;;;20429;6885;339100;-88
2022/08/23 12:28:36;;;;;;;2.20;2.00;;;32.20;25.00;;;;;;20411;6886;312145;-88
2022/08/23 12:31:13;;;;;;;1.83;1.73;;;32.40;24.80;;;;;;20634;6886;117709;-88
2022/08/23 12:33:58;;;;;;;2.17;2.00;;;32.40;25.00;;;;;;20427;6886;309274;-88
2022/08/23 12:36:31;;;;;;;3.30;1.90;;;32.70;24.20;;;;;;20376;6886;311340;-88
2022/08/23 12:39:08;;;;;;;2.10;2.00;;;32.60;24.20;;;;;;20412;6886;308715;-88
2022/08/23 12:41:57;;;;;;;2.67;1.70;;;32.80;23.60;;;;;;20590;6886;117817;-88
2022/08/23 12:44:21;;;;;;;2.28;2.08;;;32.50;23.80;;;;;;20400;6886;308368;-87
2022/08/23 12:46:50;;;;;;;1.77;1.70;;;32.50;24.70;;;;;;20654;6886;66944;-88
2022/08/23 12:49:29;;;;;;;2.20;2.00;;;32.30;24.70;;;;;;20425;6886;308178;-88
2022/08/23 12:51:57;;;;;;;2.30;2.20;;;32.30;24.70;;;;;;20642;6886;117308;-88
2022/08/23 12:54:32;;;;;;;2.13;1.93;;;32.20;24.60;;;;;;20417;6886;290370;-88
2022/08/23 12:56:57;;;;;;;2.90;2.00;;;32.20;24.60;;;;;;20446;6886;278746;-88
2022/08/23 12:59:33;;;;;;;2.30;2.00;;;32.40;25.70;;;;;;20440;6878;309074;-87
2022/08/23 13:01:59;;;;;;;1.83;1.73;;;32.50;25.20;;;;;;20438;6878;311763;-87
2022/08/23 13:04:24;;;;;;;2.40;2.20;;;32.60;25.30;;;;;;20624;6882;117829;-88
2022/08/23 13:06:50;;;;;;;2.93;2.00;;;32.50;25.20;;;;;;20437;6882;307752;-88
2022/08/23 13:09:15;;;;;;;4.15;2.55;;;32.50;25.10;;;;;;20640;6882;116622;-88
2022/08/23 13:11:43;;;;;;;2.10;1.90;;;32.40;24.20;;;;;;20429;6882;308823;-88
2022/08/23 13:14:22;;;;;;;3.33;2.12;;;32.40;24.20;;;;;;20439;6878;279076;-88
2022/08/23 13:16:47;;;;;;;2.60;2.00;;;32.50;24.90;;;;;;20678;6869;117380;-88
2022/08/23 13:19:26;;;;;;;2.10;1.90;;;32.30;24.50;;;;;;20484;6869;310904;-88
2022/08/23 13:22:18;;;;;;;3.17;2.00;;;32.30;24.10;;;;;;20685;6869;117928;-88
2022/08/23 13:25:04;;;;;;;2.03;1.93;;;32.10;24.70;;;;;;20691;6869;118057;-87
2022/08/23 13:27:29;;;;;;;2.30;2.10;;;31.80;24.70;;;;;;20469;6869;311348;-88
2022/08/23 13:29:58;;;;;;;2.25;2.10;;;31.80;24.30;;;;;;20475;6867;281032;-88
2022/08/23 13:32:27;;;;;;;2.63;1.97;;;32.00;23.70;;;;;;20455;6867;278231;-88
2022/08/23 13:34:53;;;;;;;2.00;1.90;;;32.20;23.50;;;;;;20673;6866;118010;-88
2022/08/23 13:37:18;;;;;;;2.20;2.10;;;32.00;23.60;;;;;;20696;6864;117497;-88
2022/08/23 13:39:50;;;;;;;2.17;1.97;;;31.70;23.90;;;;;;20685;6866;117731;-88
2022/08/23 13:42:28;;;;;;;2.75;1.98;;;31.40;24.10;;;;;;20440;6866;277739;-88
2022/08/23 13:44:55;;;;;;;2.10;2.00;;;31.50;24.70;;;;;;20486;6866;279540;-88
2022/08/23 13:47:21;;;;;;;2.30;2.17;;;31.70;24.60;;;;;;20489;6866;313197;-88
2022/08/23 13:49:46;;;;;;;2.27;2.07;;;31.90;23.90;;;;;;20672;6866;117229;-88
2022/08/23 13:52:12;;;;;;;2.22;2.00;;;31.80;24.10;;;;;;20461;6866;308096;-88
2022/08/23 13:54:38;;;;;;;1.97;1.87;;;31.70;24.40;;;;;;20709;6866;117493;-88
2022/08/23 13:57:10;;;;;;;2.30;2.20;;;31.70;24.40;;;;;;20489;6866;292989;-88
2022/08/23 13:59:39;;;;;;;2.33;2.13;;;31.70;23.80;;;;;;20481;6866;280838;-88
2022/08/23 14:02:05;;;;;;;2.20;2.00;;;31.90;24.40;;;;;;20458;6866;292182;-88
2022/08/23 14:04:30;;;;;;;2.10;2.00;;;32.10;24.70;;;;;;20473;6866;324143;-88
2022/08/23 14:06:58;;;;;;;2.65;2.10;;;32.10;25.30;;;;;;20701;6866;117380;-88
2022/08/23 14:09:23;;;;;;;2.57;2.37;;;32.00;24.90;;;;;;20489;6866;284825;-88
2022/08/23 14:11:49;;;;;;;2.20;2.10;;;32.10;24.80;;;;;;20484;6866;281535;-88